Bentonville, AR

2:57 AM CST on February 07, 2016 (GMT -0600)
KARBENTO2 | | Change Station
CLOSE
Current Station
Personal Weather Station
Location: Bentonville, AR
Elevation: 1289 ft
Nearby Weather Stations

Elev 1289 ft 36.36 °N, 94.20 °W | Updated 22 seconds ago

Clear
Clear
36.9 °F
Feels Like 32 °F
N
6.7
Wind Variable Wind from SW
Gusts 7.8 mph

Today
High -- | Low -- °F
--% Chance of Precip.
Yesterday
High -- | Low -- °F
Precip. -- in
Pressure 30.21 in
Visibility 10.0 miles
Clouds Clear
Windchill 32 °F
Dew Point 31 °F
Humidity 79%
Rainfall 0.00 in
Snow Depth Not available.
7:13 AM 5:49 PM
Waning Crescent, 2% visible
METAR KROG 070757Z AUTO 21007KT 10SM CLR 03/M01 A3020 RMK AO2 SLP229 T00331011
Pressure 30.21 in
Visibility 10.0 miles
Clouds Clear
Windchill 32 °F
Dew Point 31 °F
Humidity 79%
Rainfall 0.00 in
Snow Depth Not available.
7:13 AM 5:49 PM
Waning Crescent, 2% visible
METAR KROG 070757Z AUTO 21007KT 10SM CLR 03/M01 A3020 RMK AO2 SLP229 T00331011

10-Day Weather Forecast

Almanac

Astronomy

Feb. 07, 2016 Rise Set
Actual Time
Civil Twilight
Nautical Twilight
Astronomical Twilight
Moon
Length of Visible Light
Length of Day
Tomorrow will be .
, % of the Moon is Illuminated

Today's Extremes

State Highs State Lows

Community

WunderPhotos

Upload Photos

1,891,171 photos uploaded!

WunderBlog® & News

Nearby

Air Quality

  Air Quality AQ Index Pollutant
Not available.

Snow Depth

Station Depth Elevation

Earthquake Activity

City Distance Mag. Time & Date
Minimum magnitude displayed is 2.5.

Coastal Water Temperatures

Place Temperature

Stations

Nearby Weather Stations

Station Location Temp. Windchill Dew Point Humidity Wind Precip. Elev Updated Type
                   

Watches & Warnings

There are currently no watches in effect.